Time;durP1;ratioP1;P1;durP2;ratioP2;P2;SDS_P1;SDS_P2;PMS_P1;PMS_P2;Temp;Humidity;BMP_temperature;BMP_pressure;BME280_temperature;BME280_humidity;BME280_pressure;Samples;Min_cycle;Max_cycle;Signal;HPM_P1;HPM_P2
2023/10/22 00:01:52;;;;;;;13.90;6.75;;;;;;;17.16;74.54;100172.69;4955011;28;98925;-76
2023/10/22 00:04:19;;;;;;;9.45;6.60;;;;;;;17.08;74.85;100178.56;4950306;28;97215;-77
2023/10/22 00:06:47;;;;;;;12.02;7.03;;;;;;;17.29;74.10;100174.34;4953425;28;97422;-77
2023/10/22 00:09:15;;;;;;;10.57;7.00;;;;;;;17.24;73.88;100181.00;4955740;28;100702;-77
2023/10/22 00:11:41;;;;;;;12.25;7.47;;;;;;;17.25;73.93;100191.56;4950200;28;99658;-76
2023/10/22 00:14:07;;;;;;;13.02;7.18;;;;;;;17.28;74.03;100186.00;4949867;28;96828;-75
2023/10/22 00:16:34;;;;;;;8.68;6.68;;;;;;;17.21;73.95;100191.88;4950391;28;97567;-75
2023/10/22 00:19:00;;;;;;;9.23;6.60;;;;;;;17.27;74.11;100191.44;4949837;28;98914;-76
2023/10/22 00:21:26;;;;;;;10.35;6.80;;;;;;;17.16;74.14;100202.03;4958250;28;99004;-77
2023/10/22 00:23:53;;;;;;;11.95;7.60;;;;;;;17.23;74.49;100200.66;4950907;28;97040;-76
2023/10/22 00:26:21;;;;;;;12.98;7.18;;;;;;;16.96;75.68;100201.63;4946995;28;96892;-77
2023/10/22 00:28:47;;;;;;;11.43;7.57;;;;;;;17.19;74.68;100202.69;4949951;28;99175;-77
2023/10/22 00:31:13;;;;;;;11.20;6.80;;;;;;;17.16;74.24;100208.25;4949647;28;97724;-77
2023/10/22 00:33:40;;;;;;;10.65;6.90;;;;;;;16.91;75.55;100198.44;4954406;28;96790;-76
2023/10/22 00:36:06;;;;;;;14.35;6.47;;;;;;;17.21;74.46;100199.88;4952917;28;97345;-77
2023/10/22 00:38:33;;;;;;;9.82;6.78;;;;;;;17.45;73.17;100199.00;4949167;28;99769;-78
2023/10/22 00:41:00;;;;;;;10.55;6.60;;;;;;;17.27;74.07;100207.47;4949608;28;101729;-77
2023/10/22 00:43:27;;;;;;;13.50;7.22;;;;;;;17.27;73.91;100207.47;4950690;28;97086;-78
2023/10/22 00:45:55;;;;;;;11.18;6.82;;;;;;;17.25;74.07;100207.59;4950381;28;96970;-78
2023/10/22 00:48:22;;;;;;;11.10;7.00;;;;;;;17.19;74.50;100220.53;4956013;28;99421;-77
2023/10/22 00:50:49;;;;;;;10.40;6.80;;;;;;;16.90;75.93;100222.56;4953405;28;98857;-77
2023/10/22 00:53:17;;;;;;;15.10;7.32;;;;;;;17.11;74.99;100226.41;4950531;28;97136;-77
2023/10/22 00:55:45;;;;;;;11.20;7.22;;;;;;;17.03;75.03;100221.59;4956051;28;96730;-77
2023/10/22 00:58:13;;;;;;;10.88;6.88;;;;;;;17.12;74.89;100212.09;4953685;28;99283;-76
2023/10/22 01:00:41;;;;;;;9.60;6.28;;;;;;;17.16;74.62;100202.91;4951743;28;98969;-74
2023/10/22 01:03:08;;;;;;;9.07;6.50;;;;;;;17.41;73.57;100210.00;4952996;28;96871;-77
2023/10/22 01:05:37;;;;;;;11.18;7.05;;;;;;;17.20;74.43;100215.06;4951542;28;96863;-76
2023/10/22 01:08:04;;;;;;;9.52;6.10;;;;;;;17.22;74.25;100212.28;4955952;28;99011;-76
2023/10/22 01:10:30;;;;;;;10.07;6.40;;;;;;;17.42;73.24;100211.72;4951120;28;98871;-74
2023/10/22 01:12:56;;;;;;;10.68;6.90;;;;;;;17.48;73.64;100205.94;4948795;28;96911;-73
2023/10/22 01:15:23;;;;;;;10.75;6.70;;;;;;;17.40;73.83;100211.81;4955596;28;96956;-73
2023/10/22 01:17:51;;;;;;;10.23;6.50;;;;;;;17.39;73.92;100204.75;4949098;28;97637;-73
2023/10/22 01:20:17;;;;;;;9.98;5.95;;;;;;;17.36;73.91;100206.81;4953913;28;97988;-74
2023/10/22 01:22:43;;;;;;;10.35;6.60;;;;;;;17.43;73.42;100200.94;4953263;28;97167;-74
2023/10/22 01:25:12;;;;;;;10.15;6.50;;;;;;;17.25;74.56;100204.94;4953865;28;96825;-73
2023/10/22 01:27:38;;;;;;;10.52;6.28;;;;;;;17.60;73.29;100198.84;4948427;28;101291;-73
2023/10/22 01:30:05;;;;;;;9.02;6.25;;;;;;;17.57;73.73;100191.06;4952001;28;98808;-74
2023/10/22 01:32:33;;;;;;;9.63;5.70;;;;;;;17.57;72.62;100185.72;4949546;28;96976;-74
2023/10/22 01:35:00;;;;;;;10.55;6.28;;;;;;;17.74;72.17;100175.50;4948763;28;96805;-74
2023/10/22 01:37:27;;;;;;;10.43;6.07;;;;;;;17.22;73.72;100177.56;4952007;28;98957;-76
2023/10/22 01:39:54;;;;;;;10.57;6.20;;;;;;;17.32;74.01;100170.63;4949210;28;97528;-76
2023/10/22 01:42:21;;;;;;;10.13;5.90;;;;;;;17.33;73.97;100178.50;4948562;28;96855;-77
2023/10/22 01:44:48;;;;;;;13.30;6.22;;;;;;;17.31;74.32;100180.44;4955177;28;96758;-77
2023/10/22 01:47:14;;;;;;;9.88;5.95;;;;;;;17.48;74.02;100187.22;4947872;28;97947;-77
2023/10/22 01:49:40;;;;;;;10.77;6.40;;;;;;;17.26;74.75;100185.28;4947687;28;99220;-78
2023/10/22 01:52:07;;;;;;;8.50;5.93;;;;;;;17.25;74.86;100180.91;4946353;28;97078;-78
2023/10/22 01:54:36;;;;;;;10.40;5.95;;;;;;;17.38;74.77;100179.03;4949743;28;97134;-78
2023/10/22 01:57:03;;;;;;;8.82;6.40;;;;;;;17.54;73.87;100176.94;4948299;28;99326;-78
2023/10/22 01:59:30;;;;;;;10.35;6.07;;;;;;;17.34;74.67;100174.88;4947689;28;97840;-76
2023/10/22 02:01:57;;;;;;;9.55;6.57;;;;;;;17.21;75.32;100183.88;4947088;28;96804;-76
2023/10/22 02:04:23;;;;;;;9.63;5.82;;;;;;;17.31;75.64;100182.25;4954245;28;97022;-76
2023/10/22 02:06:50;;;;;;;8.52;6.00;;;;;;;17.39;75.27;100185.25;4945215;28;101882;-75
2023/10/22 02:09:17;;;;;;;11.30;6.78;;;;;;;17.13;76.70;100193.28;4952698;28;101363;-76
2023/10/22 02:11:44;;;;;;;8.60;5.47;;;;;;;17.09;76.63;100207.81;4950904;28;96830;-76
2023/10/22 02:14:10;;;;;;;6.65;5.18;;;;;;;16.73;78.03;100202.41;4957761;28;98421;-74
2023/10/22 02:16:38;;;;;;;9.35;5.80;;;;;;;17.07;77.23;100209.75;4951491;28;99875;-76
2023/10/22 02:19:04;;;;;;;12.05;5.95;;;;;;;17.10;77.28;100206.88;4947575;28;98856;-75
2023/10/22 02:21:30;;;;;;;9.85;5.72;;;;;;;17.40;75.92;100213.63;4950420;28;96805;-76
2023/10/22 02:23:57;;;;;;;7.70;5.35;;;;;;;17.30;76.35;100205.44;4955013;28;97560;-76
2023/10/22 02:26:24;;;;;;;9.18;5.72;;;;;;;17.14;76.81;100215.50;4951408;28;97995;-79
2023/10/22 02:28:50;;;;;;;8.65;5.82;;;;;;;16.94;77.55;100216.03;4954634;28;99188;-80
2023/10/22 02:31:17;;;;;;;8.30;5.80;;;;;;;17.05;77.39;100218.84;4947690;28;96816;-79
2023/10/22 02:33:45;;;;;;;8.13;4.95;;;;;;;17.03;77.84;100213.59;4951940;28;96851;-79
2023/10/22 02:36:11;;;;;;;7.75;5.00;;;;;;;17.16;76.75;100218.06;4948426;28;101501;-79
2023/10/22 02:38:39;;;;;;;9.60;4.50;;;;;;;17.14;76.63;100216.34;4956339;28;99250;-79
2023/10/22 02:41:06;;;;;;;5.40;3.40;;;;;;;17.22;74.52;100223.81;4959267;28;96780;-79
2023/10/22 02:43:32;;;;;;;7.05;3.63;;;;;;;17.19;75.12;100228.53;4951784;28;96805;-79
2023/10/22 02:45:59;;;;;;;4.72;3.08;;;;;;;17.30;73.93;100228.63;4957548;28;99310;-79
2023/10/22 02:48:25;;;;;;;5.03;2.67;;;;;;;17.40;73.39;100225.16;4960166;28;97669;-79
2023/10/22 02:50:53;;;;;;;6.80;3.28;;;;;;;17.23;74.30;100227.34;4955717;28;96990;-78
2023/10/22 02:53:19;;;;;;;7.68;3.58;;;;;;;17.33;74.13;100231.06;4951367;28;97002;-79
2023/10/22 02:55:47;;;;;;;5.63;3.35;;;;;;;17.30;74.68;100225.94;4953382;28;101735;-79
2023/10/22 02:58:14;;;;;;;5.32;3.75;;;;;;;17.45;74.46;100222.19;4955408;28;97938;-79
2023/10/22 03:00:41;;;;;;;12.82;4.03;;;;;;;17.45;74.35;100231.06;4952250;28;99007;-78
2023/10/22 03:03:07;;;;;;;5.30;3.80;;;;;;;17.21;75.42;100218.59;4950302;28;97134;-79
2023/10/22 03:05:36;;;;;;;4.57;3.63;;;;;;;17.10;75.76;100225.56;4949402;28;99535;-79
2023/10/22 03:08:04;;;;;;;5.15;3.28;;;;;;;17.17;75.81;100219.78;4947847;28;98721;-78
2023/10/22 03:10:30;;;;;;;5.80;3.10;;;;;;;16.99;76.60;100221.94;4947262;28;98467;-79
2023/10/22 03:12:58;;;;;;;3.42;2.70;;;;;;;16.92;77.49;100221.50;4950976;28;96906;-78
2023/10/22 03:15:24;;;;;;;4.10;2.80;;;;;;;16.99;76.99;100222.78;4950689;28;99697;-79
2023/10/22 03:17:50;;;;;;;6.28;3.33;;;;;;;16.91;77.48;100222.47;4953073;28;98929;-78
2023/10/22 03:20:18;;;;;;;3.75;2.72;;;;;;;17.05;76.96;100227.69;4951005;28;96849;-79
2023/10/22 03:22:45;;;;;;;3.38;2.58;;;;;;;16.96;77.17;100223.00;4955179;28;96844;-79
2023/10/22 03:25:13;;;;;;;4.47;2.60;;;;;;;16.92;77.20;100237.53;4949387;28;98902;-78
2023/10/22 03:27:39;;;;;;;3.95;2.40;;;;;;;16.87;77.71;100239.63;4953850;28;97833;-79
2023/10/22 03:30:10;;;;;;;3.88;2.50;;;;;;;16.79;78.63;100236.66;4949244;28;97502;-78
2023/10/22 03:32:36;;;;;;;2.80;2.53;;;;;;;16.60;79.44;100238.91;4951877;28;97113;-79
2023/10/22 03:35:06;;;;;;;6.57;2.58;;;;;;;16.90;78.70;100244.78;4960990;28;99360;-79
2023/10/22 03:37:32;;;;;;;4.70;2.50;;;;;;;16.96;78.64;100248.81;4951714;28;101622;-79
2023/10/22 03:39:58;;;;;;;5.30;2.90;;;;;;;16.78;79.46;100242.97;4951984;28;97348;-77
2023/10/22 03:42:26;;;;;;;8.85;3.10;;;;;;;16.63;79.84;100250.19;4957638;28;97077;-77
2023/10/22 03:44:52;;;;;;;7.40;2.50;;;;;;;16.73;80.26;100251.28;4949779;28;99208;-76
2023/10/22 03:47:19;;;;;;;8.35;3.05;;;;;;;16.72;80.48;100254.91;4954002;28;99174;-78
2023/10/22 03:49:45;;;;;;;4.22;2.60;;;;;;;16.84;80.08;100255.00;4951178;28;96837;-78
2023/10/22 03:52:12;;;;;;;3.13;2.58;;;;;;;17.03;78.98;100250.97;4956426;28;96798;-78
2023/10/22 03:54:38;;;;;;;3.78;2.45;;;;;;;17.11;78.87;100258.44;4951920;28;99244;-78
2023/10/22 03:57:04;;;;;;;4.07;2.70;;;;;;;17.01;79.00;100266.22;4950261;28;99020;-77
2023/10/22 03:59:33;;;;;;;3.15;2.75;;;;;;;17.03;79.11;100271.47;4955395;28;97723;-77
2023/10/22 04:02:00;;;;;;;2.95;2.63;;;;;;;16.63;80.56;100268.00;4951172;28;96862;-74
2023/10/22 04:04:26;;;;;;;4.35;2.88;;;;;;;17.08;78.86;100277.31;4953752;28;99264;-75
2023/10/22 04:06:52;;;;;;;3.33;2.70;;;;;;;17.09;78.59;100276.38;4959186;28;99160;-75
2023/10/22 04:09:19;;;;;;;3.80;2.65;;;;;;;17.03;79.07;100271.47;4953047;28;96801;-77
2023/10/22 04:11:45;;;;;;;9.68;2.70;;;;;;;17.12;78.66;100274.34;4955725;28;97381;-77
2023/10/22 04:14:12;;;;;;;3.83;2.45;;;;;;;17.03;79.59;100276.78;4953392;28;102289;-77
2023/10/22 04:16:39;;;;;;;3.90;2.22;;;;;;;16.97;79.31;100277.22;4954348;28;98044;-78
2023/10/22 04:19:06;;;;;;;4.95;3.10;;;;;;;16.89;79.85;100272.41;4952278;28;96939;-77
2023/10/22 04:21:33;;;;;;;4.32;2.33;;;;;;;17.02;79.38;100273.28;4950721;28;96794;-78
2023/10/22 04:23:59;;;;;;;4.32;2.67;;;;;;;16.80;80.30;100270.41;4954714;28;98940;-77
2023/10/22 04:26:27;;;;;;;5.55;2.70;;;;;;;16.89;80.57;100272.41;4949161;28;98748;-77
2023/10/22 04:28:53;;;;;;;2.88;2.42;;;;;;;16.88;80.38;100275.19;4953868;28;96857;-76
2023/10/22 04:31:20;;;;;;;2.78;2.30;;;;;;;16.78;80.87;100272.31;4950459;28;97739;-76
2023/10/22 04:33:48;;;;;;;3.45;2.30;;;;;;;16.96;80.31;100278.19;4953187;28;97875;-76
2023/10/22 04:36:20;;;;;;;3.63;2.67;;;;;;;16.79;81.04;100279.34;4948014;28;98541;-75
2023/10/22 04:38:48;;;;;;;6.25;2.63;;;;;;;16.78;81.00;100274.97;4949944;28;96761;-76
2023/10/22 04:41:14;;;;;;;3.75;2.60;;;;;;;16.65;81.81;100271.44;4950891;28;96819;-76
2023/10/22 04:43:41;;;;;;;6.00;2.90;;;;;;;16.73;81.77;100274.44;4952537;28;99019;-76
2023/10/22 04:46:07;;;;;;;3.85;2.60;;;;;;;16.82;81.24;100273.78;4949415;28;99089;-76
2023/10/22 04:48:33;;;;;;;3.65;2.80;;;;;;;16.69;81.38;100273.78;4954512;28;96742;-76
2023/10/22 04:51:06;;;;;;;4.38;3.10;;;;;;;16.71;81.79;100276.34;4954893;28;96894;-76
2023/10/22 04:53:32;;;;;;;2.80;2.45;;;;;;;16.63;82.08;100273.34;4947685;28;99145;-77
2023/10/22 04:55:59;;;;;;;4.40;3.08;;;;;;;16.67;82.52;100274.88;4947259;28;98602;-77
2023/10/22 04:58:27;;;;;;;6.60;2.92;;;;;;;16.66;82.37;100281.16;4954342;28;97713;-77
2023/10/22 05:00:54;;;;;;;3.08;2.67;;;;;;;16.85;81.57;100270.94;4946732;28;97332;-77
2023/10/22 05:03:21;;;;;;;3.97;3.28;;;;;;;16.74;82.09;100270.78;4954117;28;98870;-78
2023/10/22 05:05:47;;;;;;;5.45;3.30;;;;;;;16.64;82.97;100281.25;4948611;28;98108;-79
2023/10/22 05:08:15;;;;;;;2.72;2.38;;;;;;;16.59;83.41;100285.16;4949963;28;96857;-78
2023/10/22 05:10:42;;;;;;;4.03;3.03;;;;;;;16.64;83.11;100280.38;4953757;28;97173;-77
2023/10/22 05:13:10;;;;;;;3.72;3.05;;;;;;;16.66;82.82;100281.16;4954757;28;99640;-77
2023/10/22 05:15:36;;;;;;;4.45;2.80;;;;;;;16.69;82.94;100280.94;4949180;28;99145;-78
2023/10/22 05:18:05;;;;;;;4.47;3.08;;;;;;;16.66;82.93;100278.47;4950061;28;97076;-77
2023/10/22 05:20:32;;;;;;;4.90;3.47;;;;;;;16.65;83.37;100287.44;4950385;28;96817;-78
2023/10/22 05:22:58;;;;;;;4.93;2.85;;;;;;;16.59;83.07;100294.00;4949181;28;99972;-77
2023/10/22 05:25:26;;;;;;;5.93;3.30;;;;;;;16.60;83.73;100294.91;4947857;28;101728;-78
2023/10/22 05:27:53;;;;;;;3.67;2.65;;;;;;;16.63;83.52;100294.69;4949372;28;96733;-76
2023/10/22 05:30:19;;;;;;;6.07;3.38;;;;;;;16.62;83.00;100292.97;4949568;28;97813;-75
2023/10/22 05:32:46;;;;;;;9.35;3.55;;;;;;;17.08;81.08;100307.53;4944715;28;98985;-75
2023/10/22 05:35:13;;;;;;;4.25;3.10;;;;;;;16.87;81.77;100306.34;4949748;28;101178;-75
2023/10/22 05:37:42;;;;;;;5.40;3.20;;;;;;;17.01;81.61;100310.75;4949396;28;97320;-75
2023/10/22 05:40:11;;;;;;;4.68;3.03;;;;;;;16.85;82.18;100305.63;4951362;28;97617;-76
2023/10/22 05:42:39;;;;;;;5.03;3.17;;;;;;;16.81;82.56;100312.09;4943007;28;99720;-75
2023/10/22 05:45:06;;;;;;;4.32;3.45;;;;;;;16.63;83.61;100316.88;4954514;28;97681;-75
2023/10/22 05:47:32;;;;;;;5.18;3.25;;;;;;;16.73;83.23;100312.66;4947928;28;98284;-76
2023/10/22 05:49:59;;;;;;;5.95;3.65;;;;;;;16.68;83.48;100312.09;4951423;28;96874;-76
2023/10/22 05:52:27;;;;;;;5.10;3.40;;;;;;;16.76;83.06;100311.56;4955169;28;100871;-76
2023/10/22 05:54:54;;;;;;;7.72;3.67;;;;;;;16.64;83.76;100321.25;4953889;28;101512;-76
2023/10/22 05:57:22;;;;;;;8.90;3.38;;;;;;;16.56;84.42;100325.34;4956610;28;97954;-76
2023/10/22 05:59:50;;;;;;;4.93;3.33;;;;;;;16.51;84.66;100327.47;4952650;28;96895;-77
2023/10/22 06:02:17;;;;;;;3.63;3.33;;;;;;;16.47;84.47;100321.50;4950175;28;98685;-78
2023/10/22 06:04:43;;;;;;;6.68;3.67;;;;;;;16.68;83.62;100332.56;4956255;28;98014;-79
2023/10/22 06:07:09;;;;;;;5.38;3.75;;;;;;;16.74;83.64;100324.16;4956470;28;96920;-78
2023/10/22 06:09:36;;;;;;;5.07;3.83;;;;;;;16.76;83.84;100332.91;4957564;28;96905;-79
2023/10/22 06:12:02;;;;;;;6.35;4.45;;;;;;;16.78;83.65;100325.66;4954917;28;101505;-77
2023/10/22 06:14:29;;;;;;;6.13;3.88;;;;;;;16.82;83.01;100324.50;4950923;28;98328;-76
2023/10/22 06:16:56;;;;;;;6.47;4.05;;;;;;;16.85;83.13;100332.31;4954652;28;96665;-77
2023/10/22 06:19:23;;;;;;;5.68;4.40;;;;;;;17.04;81.67;100330.09;4954188;28;97345;-78
2023/10/22 06:21:49;;;;;;;7.65;4.13;;;;;;;16.89;82.58;100331.13;4950379;28;98858;-78
2023/10/22 06:24:16;;;;;;;4.78;3.67;;;;;;;16.93;82.50;100332.63;4958242;28;99428;-78
2023/10/22 06:26:42;;;;;;;5.30;4.05;;;;;;;16.95;82.46;100330.69;4952594;28;97833;-78
2023/10/22 06:29:08;;;;;;;4.75;4.00;;;;;;;16.77;83.06;100337.28;4953969;28;96932;-75
2023/10/22 06:31:36;;;;;;;5.53;3.80;;;;;;;16.72;83.12;100326.94;4949239;28;99045;-80
2023/10/22 06:34:04;;;;;;;6.88;3.88;;;;;;;16.83;82.81;100336.88;4957274;28;98826;-79
2023/10/22 06:36:30;;;;;;;7.03;4.13;;;;;;;16.63;83.64;100334.69;4954058;28;97659;-78
2023/10/22 06:38:56;;;;;;;5.68;3.70;;;;;;;16.47;84.72;100337.50;4956820;28;96905;-78
2023/10/22 06:41:25;;;;;;;6.63;4.10;;;;;;;16.60;84.04;100342.91;4948843;28;98451;-79
2023/10/22 06:43:52;;;;;;;7.82;4.22;;;;;;;16.60;84.04;100337.59;4950876;28;98040;-78
2023/10/22 06:46:19;;;;;;;7.35;4.50;;;;;;;16.55;83.89;100344.97;4954337;28;97003;-77
2023/10/22 06:48:46;;;;;;;6.15;3.75;;;;;;;16.72;82.90;100340.28;4953425;28;96810;-76
2023/10/22 06:51:16;;;;;;;9.95;4.50;;;;;;;16.45;84.32;100346.56;4951311;28;99148;-79
2023/10/22 06:53:43;;;;;;;9.00;4.20;;;;;;;16.51;84.28;100348.81;4950961;28;99068;-78
2023/10/22 06:56:11;;;;;;;4.60;3.70;;;;;;;16.67;83.51;100353.06;4946850;28;98757;-77
2023/10/22 06:58:38;;;;;;;6.95;4.10;;;;;;;16.56;83.57;100352.88;4953174;28;97019;-77
2023/10/22 07:01:06;;;;;;;7.55;4.05;;;;;;;16.60;83.67;100342.91;4951765;28;99347;-77
2023/10/22 07:03:33;;;;;;;4.72;3.83;;;;;;;16.52;84.00;100351.38;4952997;28;98941;-75
2023/10/22 07:06:00;;;;;;;6.38;3.92;;;;;;;16.47;83.80;100355.31;4954374;28;96867;-75
2023/10/22 07:08:27;;;;;;;6.38;3.88;;;;;;;16.56;83.38;100344.88;4951210;28;96975;-77
2023/10/22 07:10:54;;;;;;;7.63;4.07;;;;;;;16.49;83.77;100346.25;4955599;28;98899;-78
2023/10/22 07:13:20;;;;;;;5.40;3.85;;;;;;;16.58;83.63;100350.13;4950135;28;97646;-79
2023/10/22 07:15:47;;;;;;;4.10;3.60;;;;;;;16.47;83.78;100353.50;4954834;28;96847;-79
2023/10/22 07:18:13;;;;;;;8.30;3.45;;;;;;;16.73;82.77;100354.47;4947850;28;97118;-80
2023/10/22 07:20:40;;;;;;;9.32;3.85;;;;;;;16.73;82.66;100347.34;4946056;28;99607;-78
2023/10/22 07:23:07;;;;;;;7.90;3.60;;;;;;;16.60;82.58;100348.25;4951162;28;98928;-78
2023/10/22 07:25:36;;;;;;;5.88;3.67;;;;;;;16.77;81.92;100361.31;4954389;28;97377;-77
2023/10/22 07:28:02;;;;;;;5.18;3.10;;;;;;;16.81;81.41;100348.59;4949516;28;96916;-78
2023/10/22 07:30:29;;;;;;;4.07;3.08;;;;;;;16.70;81.98;100350.19;4945373;28;98935;-77
2023/10/22 07:32:56;;;;;;;5.57;2.90;;;;;;;16.84;81.26;100357.28;4949322;28;101312;-78
2023/10/22 07:35:23;;;;;;;4.35;3.00;;;;;;;16.69;81.72;100355.63;4947971;28;97057;-79
2023/10/22 07:37:49;;;;;;;5.00;3.08;;;;;;;17.02;80.65;100352.50;4947515;28;96936;-79
2023/10/22 07:40:17;;;;;;;3.20;2.90;;;;;;;17.12;79.84;100349.09;4944302;28;98707;-79
2023/10/22 07:42:45;;;;;;;7.78;3.85;;;;;;;17.15;79.93;100350.69;4947269;28;98826;-78
2023/10/22 07:45:12;;;;;;;3.67;2.22;;;;;;;17.21;79.23;100350.25;4947157;28;97385;-78
2023/10/22 07:47:39;;;;;;;3.85;2.53;;;;;;;17.20;79.12;100358.41;4943005;28;98275;-79
2023/10/22 07:50:07;;;;;;;5.03;2.65;;;;;;;17.38;77.99;100354.44;4948082;28;98766;-78
2023/10/22 07:52:34;;;;;;;5.55;2.50;;;;;;;17.38;77.99;100357.13;4946389;28;98212;-78
2023/10/22 07:55:01;;;;;;;5.32;2.10;;;;;;;17.74;76.53;100353.69;4946719;28;96948;-78
2023/10/22 07:57:28;;;;;;;4.45;2.40;;;;;;;17.80;75.37;100354.09;4947479;28;97752;-79
2023/10/22 07:59:56;;;;;;;5.70;2.03;;;;;;;17.80;75.77;100356.78;4948219;28;98877;-79
2023/10/22 08:02:23;;;;;;;2.42;2.20;;;;;;;17.86;75.24;100367.03;4954793;28;101605;-79
2023/10/22 08:04:49;;;;;;;4.82;1.95;;;;;;;18.19;74.44;100366.41;4949229;28;96825;-78
2023/10/22 08:07:17;;;;;;;2.88;1.92;;;;;;;18.13;73.55;100366.00;4946324;28;98062;-80
2023/10/22 08:09:44;;;;;;;3.63;2.13;;;;;;;18.30;72.65;100365.66;4953208;28;97641;-80
2023/10/22 08:12:10;;;;;;;5.50;1.83;;;;;;;18.17;72.67;100364.84;4946514;28;99600;-79
2023/10/22 08:14:36;;;;;;;3.85;1.90;;;;;;;18.12;72.95;100375.84;4944440;28;97544;-77
2023/10/22 08:17:04;;;;;;;2.63;1.60;;;;;;;18.15;73.12;100369.44;4950975;28;97019;-78
2023/10/22 08:19:31;;;;;;;5.00;1.67;;;;;;;18.24;73.04;100379.47;4949933;28;98215;-80
2023/10/22 08:21:57;;;;;;;1.98;1.52;;;;;;;18.44;72.24;100380.69;4948886;28;97627;-78
2023/10/22 08:24:24;;;;;;;3.00;1.60;;;;;;;18.38;71.38;100381.97;4952333;28;96796;-79
2023/10/22 08:26:50;;;;;;;1.38;1.15;;;;;;;18.66;71.55;100384.34;4944712;28;97288;-79
2023/10/22 08:29:16;;;;;;;2.72;1.20;;;;;;;18.64;70.64;100383.59;4947118;28;99458;-78
2023/10/22 08:31:43;;;;;;;2.25;1.45;;;;;;;18.84;70.12;100382.09;4946929;28;98949;-78
2023/10/22 08:34:10;;;;;;;4.15;1.85;;;;;;;18.69;70.20;100386.81;4949751;28;97278;-78
2023/10/22 08:36:37;;;;;;;4.85;1.42;;;;;;;18.86;69.99;100388.22;4947511;28;97102;-78
2023/10/22 08:39:04;;;;;;;3.50;1.38;;;;;;;19.13;69.47;100381.72;4945147;28;101856;-79
2023/10/22 08:41:37;;;;;;;2.70;1.30;;;;;;;19.28;67.77;100380.56;4951053;28;99327;-79
2023/10/22 08:44:06;;;;;;;3.15;1.30;;;;;;;19.28;68.16;100378.72;4947081;28;96805;-78
2023/10/22 08:46:34;;;;;;;4.60;0.95;;;;;;;19.02;68.52;100386.09;4941264;28;98042;-79
2023/10/22 08:49:01;;;;;;;4.07;1.30;;;;;;;19.23;67.72;100385.41;4940987;28;101072;-78
2023/10/22 08:51:29;;;;;;;2.28;1.13;;;;;;;19.07;66.73;100386.59;4942654;28;98822;-79
2023/10/22 08:53:55;;;;;;;3.55;1.27;;;;;;;18.88;68.57;100388.09;4943018;28;98547;-79
2023/10/22 08:56:22;;;;;;;2.00;1.45;;;;;;;19.08;68.15;100382.94;4942642;28;98769;-80
2023/10/22 08:58:50;;;;;;;1.88;1.23;;;;;;;19.14;68.02;100386.13;4938336;28;99108;-79
2023/10/22 09:01:17;;;;;;;2.45;1.00;;;;;;;18.94;68.72;100393.84;4947824;28;100730;-80
2023/10/22 09:03:44;;;;;;;1.85;1.13;;;;;;;19.28;67.62;100393.94;4953240;28;96906;-79
2023/10/22 09:06:10;;;;;;;3.00;1.10;;;;;;;19.14;67.59;100376.25;4949136;28;96914;-78
2023/10/22 09:08:45;;;;;;;1.90;1.15;;;;;;;19.13;66.97;100379.91;4950549;28;98885;-78
2023/10/22 09:11:15;;;;;;;4.18;1.13;;;;;;;19.17;66.95;100380.50;4942409;28;98355;-79
2023/10/22 09:13:42;;;;;;;4.55;1.40;;;;;;;19.07;66.69;100378.56;4951609;28;97372;-78
2023/10/22 09:16:09;;;;;;;2.35;1.20;;;;;;;19.09;67.20;100383.81;4944607;28;96939;-78
2023/10/22 09:18:42;;;;;;;3.38;1.25;;;;;;;19.23;66.84;100369.34;4944587;28;99083;-79
2023/10/22 09:21:09;;;;;;;2.42;0.90;;;;;;;19.32;66.44;100374.84;4946415;28;100683;-78
2023/10/22 09:23:35;;;;;;;2.33;1.45;;;;;;;19.31;65.67;100372.25;4945965;28;96992;-77
2023/10/22 09:26:03;;;;;;;1.48;1.00;;;;;;;19.35;65.30;100377.28;4948128;28;99345;-78
2023/10/22 09:28:31;;;;;;;3.97;1.30;;;;;;;19.40;65.55;100374.25;4945924;28;101683;-79
2023/10/22 09:30:59;;;;;;;3.22;1.20;;;;;;;19.54;64.28;100376.72;4945316;28;99399;-78
2023/10/22 09:33:33;;;;;;;3.28;1.23;;;;;;;19.34;64.87;100382.75;4945618;28;96735;-78
2023/10/22 09:36:01;;;;;;;2.97;1.27;;;;;;;19.40;63.85;100368.88;4945454;28;97262;-78
2023/10/22 09:38:45;;;;;;;3.70;1.13;;;;;;;19.54;63.47;100367.84;4950002;28;99140;-78
2023/10/22 09:41:14;;;;;;;2.88;1.38;;;;;;;19.22;64.42;100373.00;4947385;28;98811;-78
2023/10/22 09:43:41;;;;;;;4.97;1.55;;;;;;;19.41;63.21;100375.94;4951809;28;97204;-80
2023/10/22 09:46:08;;;;;;;1.73;1.25;;;;;;;19.36;63.75;100376.28;4954644;28;97052;-77
2023/10/22 09:48:35;;;;;;;3.65;1.23;;;;;;;19.32;63.81;100376.66;4949918;28;101011;-78
2023/10/22 09:51:05;;;;;;;3.88;1.67;;;;;;;19.42;63.28;100375.84;4955064;28;98147;-77
2023/10/22 09:53:36;;;;;;;2.03;0.90;;;;;;;19.60;62.39;100380.75;4957183;28;97574;-78
2023/10/22 09:56:07;;;;;;;3.20;1.08;;;;;;;19.42;62.54;100381.19;4943192;28;99078;-78
2023/10/22 09:58:42;;;;;;;4.63;0.98;;;;;;;19.23;63.21;100377.38;4947092;28;102100;-78
2023/10/22 10:01:10;;;;;;;4.43;1.40;;;;;;;19.37;62.96;100388.72;4930825;28;98862;-80
2023/10/22 10:03:37;;;;;;;5.90;1.35;;;;;;;19.31;62.86;100382.97;4946332;28;97239;-80
2023/10/22 10:06:06;;;;;;;6.07;1.42;;;;;;;19.50;62.08;100377.94;4948210;28;96842;-80
2023/10/22 10:08:37;;;;;;;5.38;1.48;;;;;;;19.48;62.57;100385.25;4953666;28;99324;-79
2023/10/22 10:11:05;;;;;;;3.53;1.33;;;;;;;19.41;62.47;100373.28;4949862;28;98982;-78
2023/10/22 10:13:31;;;;;;;3.85;1.20;;;;;;;19.37;61.68;100378.00;4948605;28;96985;-79
2023/10/22 10:16:03;;;;;;;3.17;1.10;;;;;;;19.12;63.32;100380.88;4948882;28;96866;-80
2023/10/22 10:19:01;;;;;;;2.15;0.90;;;;;;;19.46;62.53;100377.34;4954487;28;99663;-80
2023/10/22 10:21:44;;;;;;;2.90;1.02;;;;;;;19.27;63.27;100381.53;4948785;28;98521;-80
2023/10/22 10:24:17;;;;;;;3.97;1.10;;;;;;;19.08;62.85;100369.56;4954289;28;97278;-80
2023/10/22 10:26:44;;;;;;;4.47;1.40;;;;;;;19.24;62.55;100377.25;4948700;28;97282;-79
2023/10/22 10:29:14;;;;;;;3.63;1.40;;;;;;;19.42;62.51;100372.31;4950010;28;99270;-81
2023/10/22 10:31:45;;;;;;;2.10;1.20;;;;;;;19.27;62.95;100369.00;4949261;28;98881;-80
2023/10/22 10:34:21;;;;;;;4.70;1.30;;;;;;;19.41;62.49;100366.09;4953011;28;96870;-79
2023/10/22 10:36:49;;;;;;;2.65;1.20;;;;;;;19.73;61.64;100365.41;4955618;28;97102;-77
2023/10/22 10:39:38;;;;;;;4.55;1.35;;;;;;;19.62;61.60;100370.78;4948212;28;99273;-80
2023/10/22 10:42:05;;;;;;;5.55;1.15;;;;;;;19.60;61.89;100370.88;4950298;28;99725;-79
2023/10/22 10:44:32;;;;;;;3.80;0.90;;;;;;;19.87;61.09;100370.53;4946083;28;97516;-79
2023/10/22 10:47:31;;;;;;;3.70;1.58;;;;;;;20.01;60.88;100359.56;4957958;28;96899;-80
2023/10/22 10:50:02;;;;;;;3.35;1.20;;;;;;;20.00;60.06;100367.72;4950502;28;101894;-80
2023/10/22 10:52:29;;;;;;;5.32;1.10;;;;;;;20.37;59.42;100362.91;4953513;28;101998;-78
2023/10/22 10:54:59;;;;;;;3.28;1.10;;;;;;;20.11;59.33;100363.19;4948302;28;97826;-78
2023/10/22 10:57:36;;;;;;;6.40;1.20;;;;;;;20.12;58.80;100362.22;4948372;28;96888;-80
2023/10/22 11:00:05;;;;;;;3.67;1.08;;;;;;;20.22;59.27;100365.84;4947096;28;99365;-79
2023/10/22 11:02:40;;;;;;;6.10;1.50;;;;;;;20.47;58.69;100364.75;4947871;28;99069;-78
2023/10/22 11:05:09;;;;;;;2.97;1.02;;;;;;;20.50;57.55;100367.16;4949761;28;98029;-78
2023/10/22 11:07:36;;;;;;;5.55;1.83;;;;;;;20.51;57.31;100368.88;4948546;28;97115;-79
2023/10/22 11:10:09;;;;;;;3.15;1.00;;;;;;;20.40;57.06;100368.91;4945472;28;97928;-79
2023/10/22 11:12:36;;;;;;;3.75;1.00;;;;;;;20.25;55.79;100364.75;4946986;28;97450;-78
2023/10/22 11:15:03;;;;;;;3.90;0.98;;;;;;;20.29;55.50;100367.03;4955286;28;98774;-78
2023/10/22 11:17:29;;;;;;;6.78;0.80;;;;;;;20.06;55.35;100368.06;4947711;28;97792;-78
2023/10/22 11:19:57;;;;;;;8.40;1.27;;;;;;;20.12;54.87;100367.56;4944784;28;99157;-78
2023/10/22 11:22:25;;;;;;;3.38;0.70;;;;;;;20.15;55.24;100366.50;4948702;28;97427;-78
2023/10/22 11:24:52;;;;;;;4.05;0.90;;;;;;;20.19;55.29;100366.09;4950324;28;97433;-78
2023/10/22 11:27:20;;;;;;;3.03;1.00;;;;;;;20.39;54.13;100367.19;4947311;28;97277;-77